sensor_id;sensor_type;location;lat;lon;timestamp;P1;durP1;ratioP1;P2;durP2;ratioP2
11620;SDS011;5866;49.094;11.900;2022-08-19T00:01:36;43.85;;;39.92;;
11620;SDS011;5866;49.094;11.900;2022-08-19T00:04:06;33.50;;;30.80;;
11620;SDS011;5866;49.094;11.900;2022-08-19T00:06:35;33.47;;;30.77;;
11620;SDS011;5866;49.094;11.900;2022-08-19T00:09:06;41.00;;;37.97;;
11620;SDS011;5866;49.094;11.900;2022-08-19T00:11:36;52.33;;;48.40;;
11620;SDS011;5866;49.094;11.900;2022-08-19T00:14:04;41.28;;;37.95;;
11620;SDS011;5866;49.094;11.900;2022-08-19T00:16:34;39.70;;;36.47;;
11620;SDS011;5866;49.094;11.900;2022-08-19T00:19:02;37.08;;;33.88;;
11620;SDS011;5866;49.094;11.900;2022-08-19T00:21:30;40.15;;;37.03;;
11620;SDS011;5866;49.094;11.900;2022-08-19T00:23:57;43.85;;;40.65;;
11620;SDS011;5866;49.094;11.900;2022-08-19T00:26:27;100.78;;;94.78;;
11620;SDS011;5866;49.094;11.900;2022-08-19T00:28:55;132.18;;;124.28;;
11620;SDS011;5866;49.094;11.900;2022-08-19T00:31:23;109.68;;;102.88;;
11620;SDS011;5866;49.094;11.900;2022-08-19T00:33:51;87.15;;;81.60;;
11620;SDS011;5866;49.094;11.900;2022-08-19T00:36:19;79.03;;;73.78;;
11620;SDS011;5866;49.094;11.900;2022-08-19T00:38:47;79.93;;;74.63;;
11620;SDS011;5866;49.094;11.900;2022-08-19T00:41:17;85.88;;;80.43;;
11620;SDS011;5866;49.094;11.900;2022-08-19T00:43:57;97.75;;;91.88;;
11620;SDS011;5866;49.094;11.900;2022-08-19T00:46:27;75.03;;;70.20;;
11620;SDS011;5866;49.094;11.900;2022-08-19T00:48:55;79.28;;;74.25;;
11620;SDS011;5866;49.094;11.900;2022-08-19T00:51:24;88.47;;;82.85;;
11620;SDS011;5866;49.094;11.900;2022-08-19T00:53:53;88.30;;;82.90;;
11620;SDS011;5866;49.094;11.900;2022-08-19T00:56:22;100.43;;;94.25;;
11620;SDS011;5866;49.094;11.900;2022-08-19T00:58:50;103.68;;;97.35;;
11620;SDS011;5866;49.094;11.900;2022-08-19T01:01:19;102.95;;;96.80;;
11620;SDS011;5866;49.094;11.900;2022-08-19T01:03:47;98.38;;;92.53;;
11620;SDS011;5866;49.094;11.900;2022-08-19T01:06:23;104.13;;;97.90;;
11620;SDS011;5866;49.094;11.900;2022-08-19T01:08:51;101.22;;;95.22;;
11620;SDS011;5866;49.094;11.900;2022-08-19T01:11:19;105.60;;;99.32;;
11620;SDS011;5866;49.094;11.900;2022-08-19T01:13:46;120.30;;;113.22;;
11620;SDS011;5866;49.094;11.900;2022-08-19T01:16:16;103.13;;;96.82;;
11620;SDS011;5866;49.094;11.900;2022-08-19T01:18:47;111.68;;;105.18;;
11620;SDS011;5866;49.094;11.900;2022-08-19T01:21:16;105.78;;;99.65;;
11620;SDS011;5866;49.094;11.900;2022-08-19T01:23:50;99.55;;;93.65;;
11620;SDS011;5866;49.094;11.900;2022-08-19T01:26:19;109.75;;;103.30;;
11620;SDS011;5866;49.094;11.900;2022-08-19T01:28:50;102.72;;;96.25;;
11620;SDS011;5866;49.094;11.900;2022-08-19T01:31:26;103.45;;;97.38;;
11620;SDS011;5866;49.094;11.900;2022-08-19T01:33:58;102.68;;;96.43;;
11620;SDS011;5866;49.094;11.900;2022-08-19T01:36:28;78.53;;;73.40;;
11620;SDS011;5866;49.094;11.900;2022-08-19T01:39:00;62.13;;;57.97;;
11620;SDS011;5866;49.094;11.900;2022-08-19T01:41:29;82.40;;;77.25;;
11620;SDS011;5866;49.094;11.900;2022-08-19T01:43:57;62.05;;;57.83;;
11620;SDS011;5866;49.094;11.900;2022-08-19T01:46:44;83.03;;;77.90;;
11620;SDS011;5866;49.094;11.900;2022-08-19T01:49:14;56.35;;;52.58;;
11620;SDS011;5866;49.094;11.900;2022-08-19T01:51:43;74.82;;;70.35;;
11620;SDS011;5866;49.094;11.900;2022-08-19T01:54:13;94.20;;;88.50;;
11620;SDS011;5866;49.094;11.900;2022-08-19T01:56:53;100.28;;;94.05;;
11620;SDS011;5866;49.094;11.900;2022-08-19T01:59:26;70.03;;;65.68;;
11620;SDS011;5866;49.094;11.900;2022-08-19T02:01:55;66.13;;;61.92;;
11620;SDS011;5866;49.094;11.900;2022-08-19T02:04:22;46.45;;;43.22;;
11620;SDS011;5866;49.094;11.900;2022-08-19T02:06:51;45.08;;;41.90;;
11620;SDS011;5866;49.094;11.900;2022-08-19T02:09:20;38.97;;;36.17;;
11620;SDS011;5866;49.094;11.900;2022-08-19T02:11:47;44.25;;;41.15;;
11620;SDS011;5866;49.094;11.900;2022-08-19T02:14:15;40.35;;;37.47;;
11620;SDS011;5866;49.094;11.900;2022-08-19T02:16:43;40.58;;;37.67;;
11620;SDS011;5866;49.094;11.900;2022-08-19T02:19:10;60.10;;;56.05;;
11620;SDS011;5866;49.094;11.900;2022-08-19T02:21:38;58.92;;;54.85;;
11620;SDS011;5866;49.094;11.900;2022-08-19T02:24:05;74.28;;;69.38;;
11620;SDS011;5866;49.094;11.900;2022-08-19T02:26:34;66.78;;;62.47;;
11620;SDS011;5866;49.094;11.900;2022-08-19T02:29:02;46.95;;;43.53;;
11620;SDS011;5866;49.094;11.900;2022-08-19T02:31:30;85.97;;;80.45;;
11620;SDS011;5866;49.094;11.900;2022-08-19T02:33:58;47.90;;;44.63;;
11620;SDS011;5866;49.094;11.900;2022-08-19T02:36:25;48.38;;;44.85;;
11620;SDS011;5866;49.094;11.900;2022-08-19T02:38:55;39.38;;;36.55;;
11620;SDS011;5866;49.094;11.900;2022-08-19T02:41:22;83.07;;;78.00;;
11620;SDS011;5866;49.094;11.900;2022-08-19T02:43:54;64.55;;;60.35;;
11620;SDS011;5866;49.094;11.900;2022-08-19T02:46:42;83.18;;;77.85;;
11620;SDS011;5866;49.094;11.900;2022-08-19T02:49:12;86.40;;;81.00;;
11620;SDS011;5866;49.094;11.900;2022-08-19T02:51:43;79.53;;;74.43;;
11620;SDS011;5866;49.094;11.900;2022-08-19T02:54:12;88.30;;;82.75;;
11620;SDS011;5866;49.094;11.900;2022-08-19T02:56:41;95.68;;;89.65;;
11620;SDS011;5866;49.094;11.900;2022-08-19T02:59:11;94.38;;;88.60;;
11620;SDS011;5866;49.094;11.900;2022-08-19T03:01:39;92.47;;;86.68;;
11620;SDS011;5866;49.094;11.900;2022-08-19T03:04:09;89.60;;;83.95;;
11620;SDS011;5866;49.094;11.900;2022-08-19T03:06:39;92.07;;;86.13;;
11620;SDS011;5866;49.094;11.900;2022-08-19T03:09:08;101.30;;;95.00;;
11620;SDS011;5866;49.094;11.900;2022-08-19T03:11:36;103.90;;;97.30;;
11620;SDS011;5866;49.094;11.900;2022-08-19T03:14:05;105.28;;;98.80;;
11620;SDS011;5866;49.094;11.900;2022-08-19T03:16:40;95.20;;;89.15;;
11620;SDS011;5866;49.094;11.900;2022-08-19T03:19:09;93.70;;;87.68;;
11620;SDS011;5866;49.094;11.900;2022-08-19T03:21:36;93.38;;;87.15;;
11620;SDS011;5866;49.094;11.900;2022-08-19T03:24:05;100.63;;;94.10;;
11620;SDS011;5866;49.094;11.900;2022-08-19T03:26:38;96.38;;;90.10;;
11620;SDS011;5866;49.094;11.900;2022-08-19T03:29:06;107.95;;;101.25;;
11620;SDS011;5866;49.094;11.900;2022-08-19T03:31:38;99.70;;;93.20;;
11620;SDS011;5866;49.094;11.900;2022-08-19T03:34:18;107.32;;;100.55;;
11620;SDS011;5866;49.094;11.900;2022-08-19T03:36:47;119.18;;;111.90;;
11620;SDS011;5866;49.094;11.900;2022-08-19T03:39:15;108.35;;;101.55;;
11620;SDS011;5866;49.094;11.900;2022-08-19T03:41:44;99.13;;;93.00;;
11620;SDS011;5866;49.094;11.900;2022-08-19T03:44:14;90.95;;;85.10;;
11620;SDS011;5866;49.094;11.900;2022-08-19T03:46:46;92.18;;;86.13;;
11620;SDS011;5866;49.094;11.900;2022-08-19T03:49:15;106.63;;;99.97;;
11620;SDS011;5866;49.094;11.900;2022-08-19T03:51:45;101.97;;;95.72;;
11620;SDS011;5866;49.094;11.900;2022-08-19T03:54:15;97.82;;;91.68;;
11620;SDS011;5866;49.094;11.900;2022-08-19T03:56:44;83.97;;;78.43;;
11620;SDS011;5866;49.094;11.900;2022-08-19T03:59:15;89.20;;;83.57;;
11620;SDS011;5866;49.094;11.900;2022-08-19T04:01:46;74.45;;;69.78;;
11620;SDS011;5866;49.094;11.900;2022-08-19T04:04:13;82.82;;;77.60;;
11620;SDS011;5866;49.094;11.900;2022-08-19T04:06:41;86.50;;;81.07;;
11620;SDS011;5866;49.094;11.900;2022-08-19T04:09:10;57.00;;;53.28;;
11620;SDS011;5866;49.094;11.900;2022-08-19T04:11:40;49.70;;;45.95;;
11620;SDS011;5866;49.094;11.900;2022-08-19T04:14:10;43.10;;;40.03;;
11620;SDS011;5866;49.094;11.900;2022-08-19T04:16:40;71.78;;;66.97;;
11620;SDS011;5866;49.094;11.900;2022-08-19T04:19:10;75.07;;;70.28;;
11620;SDS011;5866;49.094;11.900;2022-08-19T04:21:38;80.53;;;75.53;;
11620;SDS011;5866;49.094;11.900;2022-08-19T04:24:06;96.47;;;90.63;;
11620;SDS011;5866;49.094;11.900;2022-08-19T04:26:34;105.25;;;98.93;;
11620;SDS011;5866;49.094;11.900;2022-08-19T04:29:04;108.72;;;102.25;;
11620;SDS011;5866;49.094;11.900;2022-08-19T04:31:38;114.20;;;107.40;;
11620;SDS011;5866;49.094;11.900;2022-08-19T04:34:08;113.25;;;106.43;;
11620;SDS011;5866;49.094;11.900;2022-08-19T04:36:40;86.10;;;80.80;;
11620;SDS011;5866;49.094;11.900;2022-08-19T04:39:11;97.75;;;91.68;;
11620;SDS011;5866;49.094;11.900;2022-08-19T04:41:41;116.55;;;109.45;;
11620;SDS011;5866;49.094;11.900;2022-08-19T04:44:27;122.28;;;114.95;;
11620;SDS011;5866;49.094;11.900;2022-08-19T04:46:58;105.78;;;99.32;;
11620;SDS011;5866;49.094;11.900;2022-08-19T04:49:28;120.50;;;113.28;;
11620;SDS011;5866;49.094;11.900;2022-08-19T04:51:56;77.10;;;72.20;;
11620;SDS011;5866;49.094;11.900;2022-08-19T04:54:24;80.93;;;75.47;;
11620;SDS011;5866;49.094;11.900;2022-08-19T04:57:04;133.20;;;125.22;;
11620;SDS011;5866;49.094;11.900;2022-08-19T04:59:36;149.45;;;140.77;;
11620;SDS011;5866;49.094;11.900;2022-08-19T05:02:04;114.20;;;107.30;;
11620;SDS011;5866;49.094;11.900;2022-08-19T05:04:35;153.63;;;144.55;;
11620;SDS011;5866;49.094;11.900;2022-08-19T05:07:05;157.88;;;148.50;;
11620;SDS011;5866;49.094;11.900;2022-08-19T05:09:33;198.52;;;187.32;;
11620;SDS011;5866;49.094;11.900;2022-08-19T05:12:21;149.38;;;140.48;;
11620;SDS011;5866;49.094;11.900;2022-08-19T05:14:54;159.25;;;149.85;;
11620;SDS011;5866;49.094;11.900;2022-08-19T05:17:23;176.30;;;166.18;;
11620;SDS011;5866;49.094;11.900;2022-08-19T05:19:55;151.73;;;142.75;;
11620;SDS011;5866;49.094;11.900;2022-08-19T05:22:41;159.98;;;150.80;;
11620;SDS011;5866;49.094;11.900;2022-08-19T05:25:10;155.88;;;146.95;;
11620;SDS011;5866;49.094;11.900;2022-08-19T05:27:40;122.65;;;115.43;;
11620;SDS011;5866;49.094;11.900;2022-08-19T05:30:09;157.40;;;148.23;;
11620;SDS011;5866;49.094;11.900;2022-08-19T05:32:37;144.00;;;135.40;;
11620;SDS011;5866;49.094;11.900;2022-08-19T05:35:07;169.77;;;160.20;;
11620;SDS011;5866;49.094;11.900;2022-08-19T05:37:35;118.47;;;111.35;;
11620;SDS011;5866;49.094;11.900;2022-08-19T05:40:05;123.28;;;115.82;;
11620;SDS011;5866;49.094;11.900;2022-08-19T05:42:34;132.15;;;124.47;;
11620;SDS011;5866;49.094;11.900;2022-08-19T05:45:02;130.15;;;122.47;;
11620;SDS011;5866;49.094;11.900;2022-08-19T05:47:30;104.57;;;98.10;;
11620;SDS011;5866;49.094;11.900;2022-08-19T05:49:59;132.05;;;124.22;;
11620;SDS011;5866;49.094;11.900;2022-08-19T05:52:31;116.95;;;109.90;;
11620;SDS011;5866;49.094;11.900;2022-08-19T05:54:59;101.93;;;95.45;;
11620;SDS011;5866;49.094;11.900;2022-08-19T05:57:27;114.93;;;108.03;;
11620;SDS011;5866;49.094;11.900;2022-08-19T05:59:54;118.95;;;111.63;;
11620;SDS011;5866;49.094;11.900;2022-08-19T06:02:24;172.50;;;162.75;;
11620;SDS011;5866;49.094;11.900;2022-08-19T06:04:52;91.75;;;86.10;;
11620;SDS011;5866;49.094;11.900;2022-08-19T06:07:19;144.15;;;135.50;;
11620;SDS011;5866;49.094;11.900;2022-08-19T06:09:48;80.53;;;75.35;;
11620;SDS011;5866;49.094;11.900;2022-08-19T06:12:26;53.53;;;49.95;;
11620;SDS011;5866;49.094;11.900;2022-08-19T06:14:58;166.77;;;157.18;;
11620;SDS011;5866;49.094;11.900;2022-08-19T06:17:27;105.15;;;98.75;;
11620;SDS011;5866;49.094;11.900;2022-08-19T06:19:57;75.70;;;70.85;;
11620;SDS011;5866;49.094;11.900;2022-08-19T06:22:25;47.42;;;44.03;;
11620;SDS011;5866;49.094;11.900;2022-08-19T06:24:54;42.92;;;39.90;;
11620;SDS011;5866;49.094;11.900;2022-08-19T06:27:22;47.67;;;44.50;;
11620;SDS011;5866;49.094;11.900;2022-08-19T06:29:50;68.22;;;63.88;;
11620;SDS011;5866;49.094;11.900;2022-08-19T06:32:18;42.88;;;40.00;;
11620;SDS011;5866;49.094;11.900;2022-08-19T06:34:45;35.75;;;33.15;;
11620;SDS011;5866;49.094;11.900;2022-08-19T06:37:13;37.05;;;34.55;;
11620;SDS011;5866;49.094;11.900;2022-08-19T06:39:41;110.70;;;104.05;;
11620;SDS011;5866;49.094;11.900;2022-08-19T06:42:12;44.33;;;41.30;;
11620;SDS011;5866;49.094;11.900;2022-08-19T06:44:43;53.90;;;50.38;;
11620;SDS011;5866;49.094;11.900;2022-08-19T06:47:15;115.50;;;108.72;;
11620;SDS011;5866;49.094;11.900;2022-08-19T06:49:52;80.70;;;75.78;;
11620;SDS011;5866;49.094;11.900;2022-08-19T06:52:28;100.05;;;94.05;;
11620;SDS011;5866;49.094;11.900;2022-08-19T06:54:59;34.35;;;31.88;;
11620;SDS011;5866;49.094;11.900;2022-08-19T06:57:33;52.30;;;48.92;;
11620;SDS011;5866;49.094;11.900;2022-08-19T07:00:01;60.50;;;56.63;;
11620;SDS011;5866;49.094;11.900;2022-08-19T07:02:30;119.93;;;113.13;;
11620;SDS011;5866;49.094;11.900;2022-08-19T07:04:57;84.88;;;79.68;;
11620;SDS011;5866;49.094;11.900;2022-08-19T07:07:27;79.50;;;74.57;;
11620;SDS011;5866;49.094;11.900;2022-08-19T07:09:55;76.70;;;72.13;;
11620;SDS011;5866;49.094;11.900;2022-08-19T07:12:25;74.88;;;70.25;;
11620;SDS011;5866;49.094;11.900;2022-08-19T07:14:57;58.40;;;54.70;;
11620;SDS011;5866;49.094;11.900;2022-08-19T07:17:25;36.72;;;34.17;;
11620;SDS011;5866;49.094;11.900;2022-08-19T07:19:52;56.85;;;53.20;;
11620;SDS011;5866;49.094;11.900;2022-08-19T07:22:21;44.42;;;41.50;;
11620;SDS011;5866;49.094;11.900;2022-08-19T07:24:49;83.78;;;78.82;;
11620;SDS011;5866;49.094;11.900;2022-08-19T07:27:17;46.30;;;43.15;;
11620;SDS011;5866;49.094;11.900;2022-08-19T07:29:51;55.50;;;51.85;;
11620;SDS011;5866;49.094;11.900;2022-08-19T07:32:24;64.80;;;60.83;;
11620;SDS011;5866;49.094;11.900;2022-08-19T07:34:52;84.38;;;79.63;;
11620;SDS011;5866;49.094;11.900;2022-08-19T07:37:22;57.40;;;53.88;;
11620;SDS011;5866;49.094;11.900;2022-08-19T07:39:51;55.55;;;52.13;;
11620;SDS011;5866;49.094;11.900;2022-08-19T07:42:19;51.60;;;48.28;;
11620;SDS011;5866;49.094;11.900;2022-08-19T07:44:47;60.28;;;56.45;;
11620;SDS011;5866;49.094;11.900;2022-08-19T07:47:16;71.93;;;67.72;;
11620;SDS011;5866;49.094;11.900;2022-08-19T07:50:07;56.80;;;53.13;;
11620;SDS011;5866;49.094;11.900;2022-08-19T07:52:37;60.75;;;57.08;;
11620;SDS011;5866;49.094;11.900;2022-08-19T07:55:07;70.50;;;66.35;;
11620;SDS011;5866;49.094;11.900;2022-08-19T07:57:56;69.05;;;64.95;;
11620;SDS011;5866;49.094;11.900;2022-08-19T08:00:24;64.20;;;60.30;;
11620;SDS011;5866;49.094;11.900;2022-08-19T08:02:52;66.65;;;62.67;;
11620;SDS011;5866;49.094;11.900;2022-08-19T08:05:22;73.68;;;69.15;;
11620;SDS011;5866;49.094;11.900;2022-08-19T08:08:09;80.15;;;75.38;;
11620;SDS011;5866;49.094;11.900;2022-08-19T08:11:12;60.58;;;56.90;;
11620;SDS011;5866;49.094;11.900;2022-08-19T08:13:43;60.15;;;56.38;;
11620;SDS011;5866;49.094;11.900;2022-08-19T08:16:10;69.70;;;65.60;;
11620;SDS011;5866;49.094;11.900;2022-08-19T08:18:39;77.80;;;73.20;;
11620;SDS011;5866;49.094;11.900;2022-08-19T08:21:19;80.15;;;75.47;;
11620;SDS011;5866;49.094;11.900;2022-08-19T08:23:47;83.90;;;78.95;;
11620;SDS011;5866;49.094;11.900;2022-08-19T08:26:17;76.82;;;72.35;;
11620;SDS011;5866;49.094;11.900;2022-08-19T08:28:44;67.43;;;63.33;;
11620;SDS011;5866;49.094;11.900;2022-08-19T08:31:14;71.57;;;66.85;;
11620;SDS011;5866;49.094;11.900;2022-08-19T08:33:42;58.40;;;54.78;;
11620;SDS011;5866;49.094;11.900;2022-08-19T08:36:10;59.53;;;55.78;;
11620;SDS011;5866;49.094;11.900;2022-08-19T08:38:41;61.53;;;57.42;;
11620;SDS011;5866;49.094;11.900;2022-08-19T08:41:13;72.00;;;67.68;;
11620;SDS011;5866;49.094;11.900;2022-08-19T08:43:47;70.07;;;65.70;;
11620;SDS011;5866;49.094;11.900;2022-08-19T08:46:19;89.78;;;84.35;;
11620;SDS011;5866;49.094;11.900;2022-08-19T08:48:59;85.75;;;80.75;;
11620;SDS011;5866;49.094;11.900;2022-08-19T08:51:32;87.07;;;81.97;;
11620;SDS011;5866;49.094;11.900;2022-08-19T08:54:04;83.45;;;78.45;;
11620;SDS011;5866;49.094;11.900;2022-08-19T08:56:36;47.97;;;44.85;;
11620;SDS011;5866;49.094;11.900;2022-08-19T08:59:06;38.63;;;35.95;;
11620;SDS011;5866;49.094;11.900;2022-08-19T09:01:44;38.03;;;35.35;;
11620;SDS011;5866;49.094;11.900;2022-08-19T09:04:11;53.17;;;49.88;;
11620;SDS011;5866;49.094;11.900;2022-08-19T09:06:42;43.35;;;40.35;;
11620;SDS011;5866;49.094;11.900;2022-08-19T09:09:17;28.52;;;26.48;;
11620;SDS011;5866;49.094;11.900;2022-08-19T09:11:55;25.98;;;24.08;;
11620;SDS011;5866;49.094;11.900;2022-08-19T09:14:34;24.17;;;22.38;;
11620;SDS011;5866;49.094;11.900;2022-08-19T09:17:17;18.00;;;16.42;;
11620;SDS011;5866;49.094;11.900;2022-08-19T09:19:48;23.15;;;21.45;;
11620;SDS011;5866;49.094;11.900;2022-08-19T09:22:18;27.35;;;25.48;;
11620;SDS011;5866;49.094;11.900;2022-08-19T09:24:54;15.60;;;14.25;;
11620;SDS011;5866;49.094;11.900;2022-08-19T09:27:22;28.88;;;26.95;;
11620;SDS011;5866;49.094;11.900;2022-08-19T09:30:09;53.90;;;50.25;;
11620;SDS011;5866;49.094;11.900;2022-08-19T09:32:41;18.23;;;16.83;;
11620;SDS011;5866;49.094;11.900;2022-08-19T09:35:09;22.83;;;21.23;;
11620;SDS011;5866;49.094;11.900;2022-08-19T09:37:37;22.90;;;21.35;;
11620;SDS011;5866;49.094;11.900;2022-08-19T09:40:07;16.75;;;15.35;;
11620;SDS011;5866;49.094;11.900;2022-08-19T09:42:37;22.17;;;20.55;;
11620;SDS011;5866;49.094;11.900;2022-08-19T09:45:20;17.92;;;16.60;;
11620;SDS011;5866;49.094;11.900;2022-08-19T09:47:49;30.95;;;28.95;;
11620;SDS011;5866;49.094;11.900;2022-08-19T09:50:20;19.15;;;17.50;;
11620;SDS011;5866;49.094;11.900;2022-08-19T09:52:49;28.58;;;26.58;;
11620;SDS011;5866;49.094;11.900;2022-08-19T09:55:24;21.27;;;19.63;;
11620;SDS011;5866;49.094;11.900;2022-08-19T09:57:58;20.98;;;19.42;;
11620;SDS011;5866;49.094;11.900;2022-08-19T10:00:26;17.92;;;16.52;;
11620;SDS011;5866;49.094;11.900;2022-08-19T10:02:54;18.92;;;17.48;;
11620;SDS011;5866;49.094;11.900;2022-08-19T10:05:22;22.23;;;20.63;;
11620;SDS011;5866;49.094;11.900;2022-08-19T10:08:07;21.55;;;19.95;;
11620;SDS011;5866;49.094;11.900;2022-08-19T10:10:40;17.80;;;16.45;;
11620;SDS011;5866;49.094;11.900;2022-08-19T10:13:11;17.85;;;16.48;;
11620;SDS011;5866;49.094;11.900;2022-08-19T10:15:40;31.35;;;29.23;;
11620;SDS011;5866;49.094;11.900;2022-08-19T10:18:13;21.23;;;19.67;;
11620;SDS011;5866;49.094;11.900;2022-08-19T10:20:42;17.13;;;15.65;;
11620;SDS011;5866;49.094;11.900;2022-08-19T10:23:16;17.15;;;15.88;;
11620;SDS011;5866;49.094;11.900;2022-08-19T10:25:46;20.05;;;18.52;;
11620;SDS011;5866;49.094;11.900;2022-08-19T10:28:14;18.73;;;17.33;;
11620;SDS011;5866;49.094;11.900;2022-08-19T10:30:45;29.40;;;27.45;;
11620;SDS011;5866;49.094;11.900;2022-08-19T10:33:13;15.13;;;13.93;;
11620;SDS011;5866;49.094;11.900;2022-08-19T10:36:01;28.63;;;26.70;;
11620;SDS011;5866;49.094;11.900;2022-08-19T10:38:30;16.58;;;15.38;;
11620;SDS011;5866;49.094;11.900;2022-08-19T10:41:05;23.38;;;21.63;;
11620;SDS011;5866;49.094;11.900;2022-08-19T10:43:33;21.63;;;19.90;;
11620;SDS011;5866;49.094;11.900;2022-08-19T10:46:03;20.70;;;19.20;;
11620;SDS011;5866;49.094;11.900;2022-08-19T10:48:41;20.70;;;19.23;;
11620;SDS011;5866;49.094;11.900;2022-08-19T10:51:10;17.40;;;15.88;;
11620;SDS011;5866;49.094;11.900;2022-08-19T10:53:56;24.00;;;22.33;;
11620;SDS011;5866;49.094;11.900;2022-08-19T10:56:26;17.63;;;16.33;;
11620;SDS011;5866;49.094;11.900;2022-08-19T10:59:12;31.88;;;29.73;;
11620;SDS011;5866;49.094;11.900;2022-08-19T11:01:42;19.55;;;18.13;;
11620;SDS011;5866;49.094;11.900;2022-08-19T11:04:11;27.27;;;25.30;;
11620;SDS011;5866;49.094;11.900;2022-08-19T11:06:40;21.30;;;19.67;;
11620;SDS011;5866;49.094;11.900;2022-08-19T11:09:09;23.42;;;21.65;;
11620;SDS011;5866;49.094;11.900;2022-08-19T11:11:39;19.42;;;18.02;;
11620;SDS011;5866;49.094;11.900;2022-08-19T11:14:07;19.35;;;18.00;;
11620;SDS011;5866;49.094;11.900;2022-08-19T11:16:35;23.92;;;22.13;;
11620;SDS011;5866;49.094;11.900;2022-08-19T11:19:05;25.77;;;23.95;;
11620;SDS011;5866;49.094;11.900;2022-08-19T11:21:35;22.98;;;21.30;;
11620;SDS011;5866;49.094;11.900;2022-08-19T11:24:06;24.17;;;22.40;;
11620;SDS011;5866;49.094;11.900;2022-08-19T11:26:36;29.80;;;27.70;;
11620;SDS011;5866;49.094;11.900;2022-08-19T11:29:07;27.77;;;25.85;;
11620;SDS011;5866;49.094;11.900;2022-08-19T11:31:39;16.15;;;14.95;;
11620;SDS011;5866;49.094;11.900;2022-08-19T11:34:09;30.60;;;28.60;;
11620;SDS011;5866;49.094;11.900;2022-08-19T11:36:40;21.38;;;19.83;;
11620;SDS011;5866;49.094;11.900;2022-08-19T11:39:10;17.50;;;16.30;;
11620;SDS011;5866;49.094;11.900;2022-08-19T11:41:40;17.48;;;16.08;;
11620;SDS011;5866;49.094;11.900;2022-08-19T11:44:08;20.30;;;18.67;;
11620;SDS011;5866;49.094;11.900;2022-08-19T11:46:36;18.48;;;17.10;;
11620;SDS011;5866;49.094;11.900;2022-08-19T11:49:05;17.20;;;15.80;;
11620;SDS011;5866;49.094;11.900;2022-08-19T11:51:39;18.50;;;17.20;;
11620;SDS011;5866;49.094;11.900;2022-08-19T11:54:09;15.20;;;14.05;;
11620;SDS011;5866;49.094;11.900;2022-08-19T11:56:38;26.20;;;24.50;;
11620;SDS011;5866;49.094;11.900;2022-08-19T11:59:08;34.58;;;32.47;;
11620;SDS011;5866;49.094;11.900;2022-08-19T12:01:40;25.20;;;23.60;;
11620;SDS011;5866;49.094;11.900;2022-08-19T12:04:08;24.23;;;22.67;;
11620;SDS011;5866;49.094;11.900;2022-08-19T12:06:37;18.48;;;17.23;;
11620;SDS011;5866;49.094;11.900;2022-08-19T12:09:08;16.77;;;15.57;;
11620;SDS011;5866;49.094;11.900;2022-08-19T12:11:37;20.70;;;19.25;;
11620;SDS011;5866;49.094;11.900;2022-08-19T12:14:09;22.95;;;21.45;;
11620;SDS011;5866;49.094;11.900;2022-08-19T12:16:40;23.88;;;22.27;;
11620;SDS011;5866;49.094;11.900;2022-08-19T12:19:16;20.48;;;19.00;;
11620;SDS011;5866;49.094;11.900;2022-08-19T12:21:48;29.98;;;28.08;;
11620;SDS011;5866;49.094;11.900;2022-08-19T12:24:16;38.78;;;36.28;;
11620;SDS011;5866;49.094;11.900;2022-08-19T12:26:48;37.65;;;35.33;;
11620;SDS011;5866;49.094;11.900;2022-08-19T12:29:20;51.20;;;48.17;;
11620;SDS011;5866;49.094;11.900;2022-08-19T12:31:56;83.70;;;79.00;;
11620;SDS011;5866;49.094;11.900;2022-08-19T12:34:27;71.55;;;67.50;;
11620;SDS011;5866;49.094;11.900;2022-08-19T12:36:57;97.70;;;92.28;;
11620;SDS011;5866;49.094;11.900;2022-08-19T12:39:25;87.32;;;82.32;;
11620;SDS011;5866;49.094;11.900;2022-08-19T12:41:52;92.05;;;86.90;;
11620;SDS011;5866;49.094;11.900;2022-08-19T12:44:22;99.22;;;93.55;;
11620;SDS011;5866;49.094;11.900;2022-08-19T12:46:54;102.57;;;96.68;;
11620;SDS011;5866;49.094;11.900;2022-08-19T12:49:22;92.30;;;87.05;;
11620;SDS011;5866;49.094;11.900;2022-08-19T12:52:10;82.85;;;77.88;;
11620;SDS011;5866;49.094;11.900;2022-08-19T12:54:42;102.32;;;96.43;;
11620;SDS011;5866;49.094;11.900;2022-08-19T12:57:10;71.95;;;67.63;;
11620;SDS011;5866;49.094;11.900;2022-08-19T12:59:39;112.60;;;106.15;;
11620;SDS011;5866;49.094;11.900;2022-08-19T13:02:07;45.88;;;42.83;;
11620;SDS011;5866;49.094;11.900;2022-08-19T13:04:35;84.30;;;79.22;;
11620;SDS011;5866;49.094;11.900;2022-08-19T13:07:06;33.10;;;30.90;;
11620;SDS011;5866;49.094;11.900;2022-08-19T13:09:35;63.35;;;59.47;;
11620;SDS011;5866;49.094;11.900;2022-08-19T13:12:03;50.88;;;47.63;;
11620;SDS011;5866;49.094;11.900;2022-08-19T13:14:33;48.42;;;45.30;;
11620;SDS011;5866;49.094;11.900;2022-08-19T13:17:03;60.22;;;56.65;;
11620;SDS011;5866;49.094;11.900;2022-08-19T13:19:31;51.03;;;47.75;;
11620;SDS011;5866;49.094;11.900;2022-08-19T13:21:58;66.63;;;62.30;;
11620;SDS011;5866;49.094;11.900;2022-08-19T13:24:26;45.28;;;42.40;;
11620;SDS011;5866;49.094;11.900;2022-08-19T13:26:59;124.05;;;117.05;;
11620;SDS011;5866;49.094;11.900;2022-08-19T13:29:26;45.30;;;42.38;;
11620;SDS011;5866;49.094;11.900;2022-08-19T13:32:13;95.88;;;90.18;;
11620;SDS011;5866;49.094;11.900;2022-08-19T13:35:00;55.35;;;51.72;;
11620;SDS011;5866;49.094;11.900;2022-08-19T13:37:28;81.03;;;76.03;;
11620;SDS011;5866;49.094;11.900;2022-08-19T13:40:11;74.25;;;69.85;;
11620;SDS011;5866;49.094;11.900;2022-08-19T13:42:42;52.22;;;48.95;;
11620;SDS011;5866;49.094;11.900;2022-08-19T13:45:13;52.03;;;48.55;;
11620;SDS011;5866;49.094;11.900;2022-08-19T13:47:44;68.15;;;63.97;;
11620;SDS011;5866;49.094;11.900;2022-08-19T13:50:13;65.57;;;61.55;;
11620;SDS011;5866;49.094;11.900;2022-08-19T13:52:43;82.57;;;77.75;;
11620;SDS011;5866;49.094;11.900;2022-08-19T13:55:11;87.05;;;81.95;;
11620;SDS011;5866;49.094;11.900;2022-08-19T13:57:49;49.78;;;46.60;;
11620;SDS011;5866;49.094;11.900;2022-08-19T14:00:17;63.05;;;59.35;;
11620;SDS011;5866;49.094;11.900;2022-08-19T14:02:47;107.05;;;101.07;;
11620;SDS011;5866;49.094;11.900;2022-08-19T14:05:18;74.60;;;70.15;;
11620;SDS011;5866;49.094;11.900;2022-08-19T14:07:47;85.13;;;80.10;;
11620;SDS011;5866;49.094;11.900;2022-08-19T14:10:15;102.63;;;96.82;;
11620;SDS011;5866;49.094;11.900;2022-08-19T14:12:43;93.88;;;88.55;;
11620;SDS011;5866;49.094;11.900;2022-08-19T14:15:11;75.82;;;71.25;;
11620;SDS011;5866;49.094;11.900;2022-08-19T14:17:39;77.90;;;72.97;;
11620;SDS011;5866;49.094;11.900;2022-08-19T14:20:10;92.05;;;86.78;;
11620;SDS011;5866;49.094;11.900;2022-08-19T14:22:44;91.95;;;86.65;;
11620;SDS011;5866;49.094;11.900;2022-08-19T14:25:15;48.70;;;45.40;;
11620;SDS011;5866;49.094;11.900;2022-08-19T14:27:44;40.15;;;37.65;;
11620;SDS011;5866;49.094;11.900;2022-08-19T14:30:14;34.67;;;32.42;;
11620;SDS011;5866;49.094;11.900;2022-08-19T14:32:43;28.77;;;26.85;;
11620;SDS011;5866;49.094;11.900;2022-08-19T14:35:12;22.60;;;20.90;;
11620;SDS011;5866;49.094;11.900;2022-08-19T14:37:42;47.25;;;44.25;;